sensor_id;sensor_type;location;lat;lon;timestamp;P1;durP1;ratioP1;P2;durP2;ratioP2
79570;SDS011;69034;49.444;7.758;2023-04-06T00:03:08;4.90;;;1.90;;
79570;SDS011;69034;49.444;7.758;2023-04-06T00:07:09;4.18;;;1.67;;
79570;SDS011;69034;49.444;7.758;2023-04-06T00:11:10;3.80;;;1.77;;
79570;SDS011;69034;49.444;7.758;2023-04-06T00:15:10;3.92;;;1.90;;
79570;SDS011;69034;49.444;7.758;2023-04-06T00:19:13;3.15;;;1.60;;
79570;SDS011;69034;49.444;7.758;2023-04-06T00:23:14;4.70;;;1.90;;
79570;SDS011;69034;49.444;7.758;2023-04-06T00:27:15;4.30;;;1.70;;
79570;SDS011;69034;49.444;7.758;2023-04-06T00:31:16;3.95;;;1.52;;
79570;SDS011;69034;49.444;7.758;2023-04-06T00:35:16;3.47;;;1.42;;
79570;SDS011;69034;49.444;7.758;2023-04-06T00:39:17;3.22;;;1.52;;
79570;SDS011;69034;49.444;7.758;2023-04-06T00:43:17;3.67;;;1.55;;
79570;SDS011;69034;49.444;7.758;2023-04-06T00:47:18;5.53;;;1.42;;
79570;SDS011;69034;49.444;7.758;2023-04-06T00:51:19;4.10;;;1.67;;
79570;SDS011;69034;49.444;7.758;2023-04-06T00:55:20;4.60;;;1.95;;
79570;SDS011;69034;49.444;7.758;2023-04-06T01:03:22;3.03;;;1.30;;
79570;SDS011;69034;49.444;7.758;2023-04-06T01:07:22;3.53;;;1.70;;
79570;SDS011;69034;49.444;7.758;2023-04-06T01:11:24;3.58;;;1.60;;
79570;SDS011;69034;49.444;7.758;2023-04-06T01:15:26;4.38;;;1.65;;
79570;SDS011;69034;49.444;7.758;2023-04-06T01:19:28;3.58;;;1.70;;
79570;SDS011;69034;49.444;7.758;2023-04-06T01:23:29;4.32;;;1.90;;
79570;SDS011;69034;49.444;7.758;2023-04-06T01:31:30;3.20;;;1.45;;
79570;SDS011;69034;49.444;7.758;2023-04-06T01:39:32;4.22;;;1.60;;
79570;SDS011;69034;49.444;7.758;2023-04-06T01:47:33;3.85;;;1.40;;
79570;SDS011;69034;49.444;7.758;2023-04-06T01:55:35;3.80;;;1.63;;
79570;SDS011;69034;49.444;7.758;2023-04-06T02:03:36;3.97;;;1.80;;
79570;SDS011;69034;49.444;7.758;2023-04-06T02:11:37;4.47;;;1.50;;
79570;SDS011;69034;49.444;7.758;2023-04-06T02:19:38;3.95;;;1.77;;
79570;SDS011;69034;49.444;7.758;2023-04-06T02:27:39;4.70;;;1.60;;
79570;SDS011;69034;49.444;7.758;2023-04-06T02:35:40;3.53;;;1.63;;
79570;SDS011;69034;49.444;7.758;2023-04-06T02:43:42;3.95;;;1.70;;
79570;SDS011;69034;49.444;7.758;2023-04-06T02:51:43;4.50;;;1.42;;
79570;SDS011;69034;49.444;7.758;2023-04-06T02:55:43;3.30;;;1.48;;
79570;SDS011;69034;49.444;7.758;2023-04-06T03:03:45;4.85;;;1.92;;
79570;SDS011;69034;49.444;7.758;2023-04-06T03:11:46;3.90;;;1.38;;
79570;SDS011;69034;49.444;7.758;2023-04-06T03:15:46;3.30;;;1.38;;
79570;SDS011;69034;49.444;7.758;2023-04-06T03:23:47;3.35;;;1.60;;
79570;SDS011;69034;49.444;7.758;2023-04-06T03:27:50;3.50;;;1.50;;
79570;SDS011;69034;49.444;7.758;2023-04-06T03:31:51;4.18;;;1.90;;
79570;SDS011;69034;49.444;7.758;2023-04-06T03:39:53;3.85;;;1.60;;
79570;SDS011;69034;49.444;7.758;2023-04-06T03:47:54;3.95;;;1.73;;
79570;SDS011;69034;49.444;7.758;2023-04-06T03:51:55;4.88;;;1.67;;
79570;SDS011;69034;49.444;7.758;2023-04-06T03:55:56;3.75;;;1.98;;
79570;SDS011;69034;49.444;7.758;2023-04-06T04:03:58;4.97;;;2.00;;
79570;SDS011;69034;49.444;7.758;2023-04-06T04:07:58;4.55;;;1.75;;
79570;SDS011;69034;49.444;7.758;2023-04-06T04:11:59;4.43;;;2.22;;
79570;SDS011;69034;49.444;7.758;2023-04-06T04:16:00;3.95;;;1.77;;
79570;SDS011;69034;49.444;7.758;2023-04-06T04:20:01;3.50;;;1.52;;
79570;SDS011;69034;49.444;7.758;2023-04-06T04:24:01;3.63;;;1.60;;
79570;SDS011;69034;49.444;7.758;2023-04-06T04:28:02;3.70;;;1.65;;
79570;SDS011;69034;49.444;7.758;2023-04-06T04:32:03;3.63;;;1.58;;
79570;SDS011;69034;49.444;7.758;2023-04-06T04:36:04;3.67;;;1.50;;
79570;SDS011;69034;49.444;7.758;2023-04-06T04:40:05;3.45;;;1.70;;
79570;SDS011;69034;49.444;7.758;2023-04-06T04:44:06;3.25;;;1.63;;
79570;SDS011;69034;49.444;7.758;2023-04-06T04:48:07;3.33;;;1.55;;
79570;SDS011;69034;49.444;7.758;2023-04-06T04:52:08;4.13;;;2.03;;
79570;SDS011;69034;49.444;7.758;2023-04-06T04:56:09;4.95;;;2.03;;
79570;SDS011;69034;49.444;7.758;2023-04-06T05:00:10;3.83;;;1.70;;
79570;SDS011;69034;49.444;7.758;2023-04-06T05:04:11;4.35;;;1.70;;
79570;SDS011;69034;49.444;7.758;2023-04-06T05:08:12;5.45;;;2.00;;
79570;SDS011;69034;49.444;7.758;2023-04-06T05:12:12;3.95;;;1.90;;
79570;SDS011;69034;49.444;7.758;2023-04-06T05:16:13;4.05;;;1.77;;
79570;SDS011;69034;49.444;7.758;2023-04-06T05:20:14;3.88;;;1.77;;
79570;SDS011;69034;49.444;7.758;2023-04-06T05:24:15;4.07;;;1.98;;
79570;SDS011;69034;49.444;7.758;2023-04-06T05:32:16;4.20;;;1.45;;
79570;SDS011;69034;49.444;7.758;2023-04-06T05:36:21;3.38;;;1.55;;
79570;SDS011;69034;49.444;7.758;2023-04-06T05:40:22;3.83;;;1.73;;
79570;SDS011;69034;49.444;7.758;2023-04-06T05:48:23;3.90;;;1.73;;
79570;SDS011;69034;49.444;7.758;2023-04-06T05:52:25;3.38;;;1.70;;
79570;SDS011;69034;49.444;7.758;2023-04-06T05:56:26;3.88;;;2.00;;
79570;SDS011;69034;49.444;7.758;2023-04-06T06:00:26;3.95;;;1.90;;
79570;SDS011;69034;49.444;7.758;2023-04-06T06:04:27;4.88;;;2.30;;
79570;SDS011;69034;49.444;7.758;2023-04-06T06:12:30;12.38;;;4.50;;
79570;SDS011;69034;49.444;7.758;2023-04-06T06:20:31;15.18;;;6.10;;
79570;SDS011;69034;49.444;7.758;2023-04-06T06:28:33;14.93;;;5.30;;
79570;SDS011;69034;49.444;7.758;2023-04-06T06:36:34;11.45;;;5.07;;
79570;SDS011;69034;49.444;7.758;2023-04-06T06:44:36;8.13;;;3.58;;
79570;SDS011;69034;49.444;7.758;2023-04-06T06:52:38;10.98;;;3.97;;
79570;SDS011;69034;49.444;7.758;2023-04-06T06:56:39;7.75;;;3.60;;
79570;SDS011;69034;49.444;7.758;2023-04-06T07:04:41;7.57;;;2.95;;
79570;SDS011;69034;49.444;7.758;2023-04-06T07:08:41;8.27;;;3.70;;
79570;SDS011;69034;49.444;7.758;2023-04-06T07:12:42;6.82;;;3.20;;
79570;SDS011;69034;49.444;7.758;2023-04-06T07:16:42;6.47;;;3.22;;
79570;SDS011;69034;49.444;7.758;2023-04-06T07:20:45;6.55;;;3.25;;
79570;SDS011;69034;49.444;7.758;2023-04-06T07:24:45;5.65;;;2.92;;
79570;SDS011;69034;49.444;7.758;2023-04-06T07:28:46;8.68;;;3.20;;
79570;SDS011;69034;49.444;7.758;2023-04-06T07:32:47;7.47;;;3.33;;
79570;SDS011;69034;49.444;7.758;2023-04-06T07:36:48;6.85;;;3.28;;
79570;SDS011;69034;49.444;7.758;2023-04-06T07:40:49;6.32;;;3.15;;
79570;SDS011;69034;49.444;7.758;2023-04-06T07:44:49;6.18;;;3.13;;
79570;SDS011;69034;49.444;7.758;2023-04-06T07:48:50;7.07;;;2.88;;
79570;SDS011;69034;49.444;7.758;2023-04-06T07:52:51;5.28;;;2.95;;
79570;SDS011;69034;49.444;7.758;2023-04-06T07:56:52;7.30;;;3.72;;
79570;SDS011;69034;49.444;7.758;2023-04-06T08:00:52;5.80;;;2.92;;
79570;SDS011;69034;49.444;7.758;2023-04-06T08:04:57;6.47;;;2.97;;
79570;SDS011;69034;49.444;7.758;2023-04-06T08:08:58;6.03;;;3.20;;
79570;SDS011;69034;49.444;7.758;2023-04-06T08:12:58;6.25;;;2.80;;
79570;SDS011;69034;49.444;7.758;2023-04-06T08:16:59;5.03;;;2.70;;
79570;SDS011;69034;49.444;7.758;2023-04-06T08:21:00;6.05;;;3.05;;
79570;SDS011;69034;49.444;7.758;2023-04-06T08:25:01;5.60;;;3.22;;
79570;SDS011;69034;49.444;7.758;2023-04-06T08:29:01;7.30;;;3.58;;
79570;SDS011;69034;49.444;7.758;2023-04-06T08:33:04;6.38;;;3.10;;
79570;SDS011;69034;49.444;7.758;2023-04-06T08:37:04;5.75;;;2.72;;
79570;SDS011;69034;49.444;7.758;2023-04-06T08:41:07;4.78;;;2.45;;
79570;SDS011;69034;49.444;7.758;2023-04-06T08:45:15;6.25;;;2.60;;
79570;SDS011;69034;49.444;7.758;2023-04-06T08:49:17;5.03;;;2.83;;
79570;SDS011;69034;49.444;7.758;2023-04-06T08:53:19;5.60;;;2.67;;
79570;SDS011;69034;49.444;7.758;2023-04-06T08:57:20;4.63;;;2.25;;
79570;SDS011;69034;49.444;7.758;2023-04-06T09:01:22;4.90;;;2.65;;
79570;SDS011;69034;49.444;7.758;2023-04-06T09:05:25;5.30;;;2.40;;
79570;SDS011;69034;49.444;7.758;2023-04-06T09:09:26;4.78;;;2.45;;
79570;SDS011;69034;49.444;7.758;2023-04-06T09:13:27;4.65;;;2.40;;
79570;SDS011;69034;49.444;7.758;2023-04-06T09:17:29;5.18;;;2.65;;
79570;SDS011;69034;49.444;7.758;2023-04-06T09:21:32;5.40;;;3.03;;
79570;SDS011;69034;49.444;7.758;2023-04-06T09:25:33;4.70;;;2.33;;
79570;SDS011;69034;49.444;7.758;2023-04-06T09:29:34;5.50;;;2.60;;
79570;SDS011;69034;49.444;7.758;2023-04-06T09:33:55;5.07;;;2.58;;
79570;SDS011;69034;49.444;7.758;2023-04-06T09:37:56;5.15;;;2.70;;
79570;SDS011;69034;49.444;7.758;2023-04-06T09:41:57;4.85;;;2.92;;
79570;SDS011;69034;49.444;7.758;2023-04-06T09:45:57;5.40;;;2.92;;
79570;SDS011;69034;49.444;7.758;2023-04-06T09:50:03;3.92;;;2.25;;
79570;SDS011;69034;49.444;7.758;2023-04-06T09:54:07;4.72;;;2.55;;
79570;SDS011;69034;49.444;7.758;2023-04-06T09:58:09;4.85;;;2.58;;
79570;SDS011;69034;49.444;7.758;2023-04-06T10:06:34;4.68;;;2.38;;
79570;SDS011;69034;49.444;7.758;2023-04-06T10:10:36;6.13;;;3.17;;
79570;SDS011;69034;49.444;7.758;2023-04-06T10:14:37;4.72;;;2.60;;
79570;SDS011;69034;49.444;7.758;2023-04-06T10:18:39;5.47;;;3.05;;
79570;SDS011;69034;49.444;7.758;2023-04-06T10:22:49;5.03;;;2.92;;
79570;SDS011;69034;49.444;7.758;2023-04-06T10:26:57;5.13;;;2.90;;
79570;SDS011;69034;49.444;7.758;2023-04-06T10:31:04;27.85;;;15.75;;
79570;SDS011;69034;49.444;7.758;2023-04-06T10:35:06;27.67;;;15.95;;
79570;SDS011;69034;49.444;7.758;2023-04-06T10:39:11;13.30;;;8.20;;
79570;SDS011;69034;49.444;7.758;2023-04-06T10:43:21;9.30;;;5.70;;
79570;SDS011;69034;49.444;7.758;2023-04-06T10:47:22;7.72;;;4.72;;
79570;SDS011;69034;49.444;7.758;2023-04-06T10:51:27;6.85;;;3.80;;
79570;SDS011;69034;49.444;7.758;2023-04-06T10:55:28;6.18;;;4.28;;
79570;SDS011;69034;49.444;7.758;2023-04-06T10:59:30;6.25;;;4.32;;
79570;SDS011;69034;49.444;7.758;2023-04-06T11:03:31;6.75;;;3.95;;
79570;SDS011;69034;49.444;7.758;2023-04-06T11:07:42;7.45;;;4.07;;
79570;SDS011;69034;49.444;7.758;2023-04-06T11:11:43;8.70;;;3.50;;
79570;SDS011;69034;49.444;7.758;2023-04-06T11:15:44;5.07;;;3.00;;
79570;SDS011;69034;49.444;7.758;2023-04-06T11:19:45;5.10;;;3.08;;
79570;SDS011;69034;49.444;7.758;2023-04-06T11:23:46;4.50;;;2.70;;
79570;SDS011;69034;49.444;7.758;2023-04-06T11:27:46;4.57;;;2.75;;
79570;SDS011;69034;49.444;7.758;2023-04-06T11:31:49;4.05;;;2.00;;
79570;SDS011;69034;49.444;7.758;2023-04-06T11:35:51;4.28;;;2.13;;
79570;SDS011;69034;49.444;7.758;2023-04-06T11:39:52;4.05;;;2.30;;
79570;SDS011;69034;49.444;7.758;2023-04-06T11:43:55;4.38;;;2.20;;
79570;SDS011;69034;49.444;7.758;2023-04-06T11:47:56;3.70;;;2.10;;
79570;SDS011;69034;49.444;7.758;2023-04-06T11:51:59;3.78;;;2.10;;
79570;SDS011;69034;49.444;7.758;2023-04-06T11:56:01;3.63;;;1.77;;
79570;SDS011;69034;49.444;7.758;2023-04-06T12:00:02;3.67;;;1.98;;
79570;SDS011;69034;49.444;7.758;2023-04-06T12:04:03;5.00;;;2.28;;
79570;SDS011;69034;49.444;7.758;2023-04-06T12:08:03;4.32;;;2.13;;
79570;SDS011;69034;49.444;7.758;2023-04-06T12:12:04;3.78;;;2.00;;
79570;SDS011;69034;49.444;7.758;2023-04-06T12:16:08;4.35;;;2.55;;
79570;SDS011;69034;49.444;7.758;2023-04-06T12:20:09;4.28;;;2.25;;
79570;SDS011;69034;49.444;7.758;2023-04-06T12:24:10;5.47;;;2.67;;
79570;SDS011;69034;49.444;7.758;2023-04-06T12:28:11;4.93;;;2.55;;
79570;SDS011;69034;49.444;7.758;2023-04-06T12:32:12;4.50;;;2.65;;
79570;SDS011;69034;49.444;7.758;2023-04-06T12:36:13;4.75;;;2.47;;
79570;SDS011;69034;49.444;7.758;2023-04-06T12:40:21;4.88;;;2.65;;
79570;SDS011;69034;49.444;7.758;2023-04-06T12:44:21;4.78;;;2.53;;
79570;SDS011;69034;49.444;7.758;2023-04-06T12:48:23;4.95;;;2.78;;
79570;SDS011;69034;49.444;7.758;2023-04-06T12:52:23;4.63;;;2.55;;
79570;SDS011;69034;49.444;7.758;2023-04-06T12:56:24;5.38;;;2.28;;
79570;SDS011;69034;49.444;7.758;2023-04-06T13:00:25;4.47;;;2.30;;
79570;SDS011;69034;49.444;7.758;2023-04-06T13:04:26;3.80;;;2.13;;
79570;SDS011;69034;49.444;7.758;2023-04-06T13:08:27;4.57;;;2.60;;
79570;SDS011;69034;49.444;7.758;2023-04-06T13:12:27;4.28;;;2.25;;
79570;SDS011;69034;49.444;7.758;2023-04-06T13:16:28;5.43;;;2.58;;
79570;SDS011;69034;49.444;7.758;2023-04-06T13:20:29;5.55;;;2.38;;
79570;SDS011;69034;49.444;7.758;2023-04-06T13:24:30;3.85;;;2.08;;
79570;SDS011;69034;49.444;7.758;2023-04-06T13:28:31;3.90;;;1.83;;
79570;SDS011;69034;49.444;7.758;2023-04-06T13:32:33;4.80;;;2.03;;
79570;SDS011;69034;49.444;7.758;2023-04-06T13:36:33;4.20;;;1.85;;
79570;SDS011;69034;49.444;7.758;2023-04-06T13:40:34;4.00;;;2.05;;
79570;SDS011;69034;49.444;7.758;2023-04-06T13:44:38;3.58;;;1.90;;
79570;SDS011;69034;49.444;7.758;2023-04-06T13:48:39;4.13;;;2.17;;
79570;SDS011;69034;49.444;7.758;2023-04-06T13:52:39;5.45;;;2.17;;
79570;SDS011;69034;49.444;7.758;2023-04-06T13:56:40;4.15;;;2.10;;
79570;SDS011;69034;49.444;7.758;2023-04-06T14:00:41;4.03;;;2.05;;
79570;SDS011;69034;49.444;7.758;2023-04-06T14:04:41;3.80;;;2.03;;
79570;SDS011;69034;49.444;7.758;2023-04-06T14:08:42;4.03;;;2.05;;
79570;SDS011;69034;49.444;7.758;2023-04-06T14:12:43;3.65;;;1.60;;
79570;SDS011;69034;49.444;7.758;2023-04-06T14:16:44;4.00;;;1.95;;
79570;SDS011;69034;49.444;7.758;2023-04-06T14:20:52;3.70;;;1.80;;
79570;SDS011;69034;49.444;7.758;2023-04-06T14:24:54;5.20;;;2.10;;
79570;SDS011;69034;49.444;7.758;2023-04-06T14:28:55;4.22;;;2.30;;
79570;SDS011;69034;49.444;7.758;2023-04-06T14:32:56;3.70;;;1.73;;
79570;SDS011;69034;49.444;7.758;2023-04-06T14:36:58;3.72;;;1.80;;
79570;SDS011;69034;49.444;7.758;2023-04-06T14:40:58;4.32;;;2.03;;
79570;SDS011;69034;49.444;7.758;2023-04-06T14:45:00;4.80;;;2.00;;
79570;SDS011;69034;49.444;7.758;2023-04-06T14:49:00;4.38;;;1.70;;
79570;SDS011;69034;49.444;7.758;2023-04-06T14:53:01;4.63;;;1.90;;
79570;SDS011;69034;49.444;7.758;2023-04-06T14:57:02;3.30;;;1.80;;
79570;SDS011;69034;49.444;7.758;2023-04-06T15:01:03;4.93;;;2.22;;
79570;SDS011;69034;49.444;7.758;2023-04-06T15:05:04;3.80;;;1.80;;
79570;SDS011;69034;49.444;7.758;2023-04-06T15:09:05;3.80;;;1.60;;
79570;SDS011;69034;49.444;7.758;2023-04-06T15:13:06;4.53;;;1.95;;
79570;SDS011;69034;49.444;7.758;2023-04-06T15:17:07;3.53;;;1.50;;
79570;SDS011;69034;49.444;7.758;2023-04-06T15:21:07;3.95;;;1.70;;
79570;SDS011;69034;49.444;7.758;2023-04-06T15:25:08;4.75;;;1.75;;
79570;SDS011;69034;49.444;7.758;2023-04-06T15:29:09;4.82;;;1.60;;
79570;SDS011;69034;49.444;7.758;2023-04-06T15:33:11;4.15;;;2.00;;
79570;SDS011;69034;49.444;7.758;2023-04-06T15:37:11;4.13;;;2.00;;
79570;SDS011;69034;49.444;7.758;2023-04-06T15:41:12;3.15;;;1.40;;
79570;SDS011;69034;49.444;7.758;2023-04-06T15:45:14;3.03;;;1.48;;
79570;SDS011;69034;49.444;7.758;2023-04-06T15:49:15;3.60;;;1.30;;
79570;SDS011;69034;49.444;7.758;2023-04-06T15:53:21;2.97;;;1.30;;
79570;SDS011;69034;49.444;7.758;2023-04-06T15:57:21;2.83;;;1.40;;
79570;SDS011;69034;49.444;7.758;2023-04-06T16:01:22;3.83;;;1.60;;
79570;SDS011;69034;49.444;7.758;2023-04-06T16:05:23;3.92;;;1.30;;
79570;SDS011;69034;49.444;7.758;2023-04-06T16:09:24;2.95;;;1.20;;
79570;SDS011;69034;49.444;7.758;2023-04-06T16:13:25;3.22;;;1.50;;
79570;SDS011;69034;49.444;7.758;2023-04-06T16:17:28;4.72;;;1.45;;
79570;SDS011;69034;49.444;7.758;2023-04-06T16:21:29;3.75;;;1.88;;
79570;SDS011;69034;49.444;7.758;2023-04-06T16:25:30;3.00;;;1.27;;
79570;SDS011;69034;49.444;7.758;2023-04-06T16:29:33;4.05;;;1.38;;
79570;SDS011;69034;49.444;7.758;2023-04-06T16:33:34;3.70;;;1.60;;
79570;SDS011;69034;49.444;7.758;2023-04-06T16:37:35;3.20;;;1.48;;
79570;SDS011;69034;49.444;7.758;2023-04-06T16:41:36;2.95;;;1.48;;
79570;SDS011;69034;49.444;7.758;2023-04-06T16:45:38;4.25;;;1.70;;
79570;SDS011;69034;49.444;7.758;2023-04-06T16:49:38;7.55;;;2.10;;
79570;SDS011;69034;49.444;7.758;2023-04-06T16:53:40;6.65;;;3.25;;
79570;SDS011;69034;49.444;7.758;2023-04-06T16:57:41;8.57;;;3.17;;
79570;SDS011;69034;49.444;7.758;2023-04-06T17:01:42;5.03;;;2.42;;
79570;SDS011;69034;49.444;7.758;2023-04-06T17:05:44;7.35;;;3.58;;
79570;SDS011;69034;49.444;7.758;2023-04-06T17:09:46;6.95;;;3.25;;
79570;SDS011;69034;49.444;7.758;2023-04-06T17:13:48;9.55;;;4.78;;
79570;SDS011;69034;49.444;7.758;2023-04-06T17:17:49;9.55;;;4.40;;
79570;SDS011;69034;49.444;7.758;2023-04-06T17:21:51;9.52;;;4.30;;
79570;SDS011;69034;49.444;7.758;2023-04-06T17:25:52;8.35;;;4.00;;
79570;SDS011;69034;49.444;7.758;2023-04-06T17:29:54;9.77;;;4.13;;
79570;SDS011;69034;49.444;7.758;2023-04-06T17:33:57;7.57;;;3.33;;
79570;SDS011;69034;49.444;7.758;2023-04-06T17:37:59;8.63;;;3.53;;
79570;SDS011;69034;49.444;7.758;2023-04-06T17:42:01;5.63;;;2.67;;
79570;SDS011;69034;49.444;7.758;2023-04-06T17:46:03;6.57;;;3.00;;
79570;SDS011;69034;49.444;7.758;2023-04-06T17:50:05;6.90;;;3.63;;
79570;SDS011;69034;49.444;7.758;2023-04-06T17:54:07;11.05;;;4.72;;
79570;SDS011;69034;49.444;7.758;2023-04-06T17:58:08;14.95;;;4.80;;
79570;SDS011;69034;49.444;7.758;2023-04-06T18:02:09;10.20;;;4.95;;
79570;SDS011;69034;49.444;7.758;2023-04-06T18:06:11;8.27;;;4.40;;
79570;SDS011;69034;49.444;7.758;2023-04-06T18:10:16;7.20;;;3.55;;
79570;SDS011;69034;49.444;7.758;2023-04-06T18:14:17;7.30;;;3.30;;
79570;SDS011;69034;49.444;7.758;2023-04-06T18:18:18;7.78;;;3.80;;
79570;SDS011;69034;49.444;7.758;2023-04-06T18:22:19;8.23;;;3.70;;
79570;SDS011;69034;49.444;7.758;2023-04-06T18:26:21;11.73;;;4.15;;
79570;SDS011;69034;49.444;7.758;2023-04-06T18:30:23;7.10;;;3.38;;
79570;SDS011;69034;49.444;7.758;2023-04-06T18:34:24;5.63;;;2.70;;
79570;SDS011;69034;49.444;7.758;2023-04-06T18:38:25;7.32;;;3.05;;
79570;SDS011;69034;49.444;7.758;2023-04-06T18:42:26;4.90;;;2.50;;
79570;SDS011;69034;49.444;7.758;2023-04-06T18:46:28;8.02;;;2.88;;
79570;SDS011;69034;49.444;7.758;2023-04-06T18:50:30;5.20;;;2.50;;
79570;SDS011;69034;49.444;7.758;2023-04-06T18:54:31;4.75;;;2.53;;
79570;SDS011;69034;49.444;7.758;2023-04-06T18:58:32;4.60;;;2.15;;
79570;SDS011;69034;49.444;7.758;2023-04-06T19:02:33;7.07;;;2.65;;
79570;SDS011;69034;49.444;7.758;2023-04-06T19:06:36;5.00;;;2.20;;
79570;SDS011;69034;49.444;7.758;2023-04-06T19:10:40;5.88;;;2.22;;
79570;SDS011;69034;49.444;7.758;2023-04-06T19:14:41;4.57;;;2.45;;
79570;SDS011;69034;49.444;7.758;2023-04-06T19:18:43;5.05;;;2.65;;
79570;SDS011;69034;49.444;7.758;2023-04-06T19:22:44;5.22;;;2.60;;
79570;SDS011;69034;49.444;7.758;2023-04-06T19:26:45;4.95;;;2.00;;
79570;SDS011;69034;49.444;7.758;2023-04-06T19:30:47;4.88;;;2.22;;
79570;SDS011;69034;49.444;7.758;2023-04-06T19:34:50;4.30;;;2.25;;
79570;SDS011;69034;49.444;7.758;2023-04-06T19:38:51;5.40;;;1.90;;
79570;SDS011;69034;49.444;7.758;2023-04-06T19:42:53;4.70;;;2.15;;
79570;SDS011;69034;49.444;7.758;2023-04-06T19:46:54;4.90;;;2.00;;
79570;SDS011;69034;49.444;7.758;2023-04-06T19:50:55;4.65;;;2.28;;
79570;SDS011;69034;49.444;7.758;2023-04-06T19:54:58;5.45;;;2.38;;
79570;SDS011;69034;49.444;7.758;2023-04-06T19:59:01;4.68;;;2.10;;
79570;SDS011;69034;49.444;7.758;2023-04-06T20:03:02;5.63;;;2.35;;
79570;SDS011;69034;49.444;7.758;2023-04-06T20:07:03;4.72;;;2.75;;
79570;SDS011;69034;49.444;7.758;2023-04-06T20:11:05;6.03;;;1.95;;
79570;SDS011;69034;49.444;7.758;2023-04-06T20:15:10;4.30;;;2.00;;
79570;SDS011;69034;49.444;7.758;2023-04-06T20:19:11;4.07;;;2.10;;
79570;SDS011;69034;49.444;7.758;2023-04-06T20:23:12;3.83;;;1.90;;
79570;SDS011;69034;49.444;7.758;2023-04-06T20:27:16;4.15;;;2.25;;
79570;SDS011;69034;49.444;7.758;2023-04-06T20:31:17;7.35;;;2.55;;
79570;SDS011;69034;49.444;7.758;2023-04-06T20:35:19;4.88;;;1.95;;
79570;SDS011;69034;49.444;7.758;2023-04-06T20:39:20;3.72;;;2.00;;
79570;SDS011;69034;49.444;7.758;2023-04-06T20:43:21;3.72;;;1.85;;
79570;SDS011;69034;49.444;7.758;2023-04-06T20:47:24;5.80;;;2.00;;
79570;SDS011;69034;49.444;7.758;2023-04-06T20:51:26;4.30;;;1.90;;
79570;SDS011;69034;49.444;7.758;2023-04-06T20:55:27;5.93;;;2.17;;
79570;SDS011;69034;49.444;7.758;2023-04-06T20:59:28;5.88;;;1.80;;
79570;SDS011;69034;49.444;7.758;2023-04-06T21:03:29;4.25;;;2.10;;
79570;SDS011;69034;49.444;7.758;2023-04-06T21:07:30;4.90;;;2.10;;
79570;SDS011;69034;49.444;7.758;2023-04-06T21:11:31;4.57;;;2.05;;
79570;SDS011;69034;49.444;7.758;2023-04-06T21:15:36;4.50;;;2.13;;
79570;SDS011;69034;49.444;7.758;2023-04-06T21:19:37;5.10;;;1.98;;
79570;SDS011;69034;49.444;7.758;2023-04-06T21:23:41;3.92;;;1.90;;
79570;SDS011;69034;49.444;7.758;2023-04-06T21:27:42;4.50;;;1.95;;
79570;SDS011;69034;49.444;7.758;2023-04-06T21:31:43;3.50;;;1.75;;
79570;SDS011;69034;49.444;7.758;2023-04-06T21:35:45;6.28;;;2.17;;
79570;SDS011;69034;49.444;7.758;2023-04-06T21:39:46;3.25;;;1.60;;
79570;SDS011;69034;49.444;7.758;2023-04-06T21:43:48;4.22;;;1.80;;
79570;SDS011;69034;49.444;7.758;2023-04-06T21:47:50;3.97;;;1.92;;
79570;SDS011;69034;49.444;7.758;2023-04-06T21:51:55;5.25;;;1.80;;
79570;SDS011;69034;49.444;7.758;2023-04-06T21:55:57;4.57;;;1.88;;
79570;SDS011;69034;49.444;7.758;2023-04-06T22:00:00;4.43;;;2.13;;
79570;SDS011;69034;49.444;7.758;2023-04-06T22:04:01;4.38;;;1.67;;
79570;SDS011;69034;49.444;7.758;2023-04-06T22:08:02;4.10;;;1.90;;
79570;SDS011;69034;49.444;7.758;2023-04-06T22:12:03;7.20;;;2.03;;
79570;SDS011;69034;49.444;7.758;2023-04-06T22:16:05;8.73;;;2.10;;
79570;SDS011;69034;49.444;7.758;2023-04-06T22:20:06;3.78;;;1.95;;
79570;SDS011;69034;49.444;7.758;2023-04-06T22:24:09;3.60;;;1.75;;
79570;SDS011;69034;49.444;7.758;2023-04-06T22:28:10;4.40;;;1.63;;
79570;SDS011;69034;49.444;7.758;2023-04-06T22:32:11;5.22;;;2.03;;
79570;SDS011;69034;49.444;7.758;2023-04-06T22:36:12;3.90;;;1.65;;
79570;SDS011;69034;49.444;7.758;2023-04-06T22:40:13;4.50;;;1.83;;
79570;SDS011;69034;49.444;7.758;2023-04-06T22:44:14;7.28;;;2.35;;
79570;SDS011;69034;49.444;7.758;2023-04-06T22:48:15;4.65;;;2.08;;
79570;SDS011;69034;49.444;7.758;2023-04-06T22:52:16;6.90;;;1.75;;
79570;SDS011;69034;49.444;7.758;2023-04-06T22:56:18;3.40;;;1.50;;
79570;SDS011;69034;49.444;7.758;2023-04-06T23:00:20;3.58;;;1.90;;
79570;SDS011;69034;49.444;7.758;2023-04-06T23:04:21;3.63;;;1.73;;
79570;SDS011;69034;49.444;7.758;2023-04-06T23:08:22;5.97;;;2.33;;
79570;SDS011;69034;49.444;7.758;2023-04-06T23:12:23;3.58;;;1.70;;
79570;SDS011;69034;49.444;7.758;2023-04-06T23:16:24;3.83;;;1.73;;
79570;SDS011;69034;49.444;7.758;2023-04-06T23:20:26;5.15;;;1.90;;
79570;SDS011;69034;49.444;7.758;2023-04-06T23:24:27;6.38;;;2.00;;
79570;SDS011;69034;49.444;7.758;2023-04-06T23:28:28;5.25;;;1.90;;
79570;SDS011;69034;49.444;7.758;2023-04-06T23:32:29;4.05;;;1.73;;
79570;SDS011;69034;49.444;7.758;2023-04-06T23:36:30;3.95;;;1.67;;
79570;SDS011;69034;49.444;7.758;2023-04-06T23:40:31;3.60;;;1.88;;
79570;SDS011;69034;49.444;7.758;2023-04-06T23:44:32;7.22;;;2.38;;
79570;SDS011;69034;49.444;7.758;2023-04-06T23:48:33;6.60;;;2.10;;
79570;SDS011;69034;49.444;7.758;2023-04-06T23:52:35;5.97;;;2.20;;
79570;SDS011;69034;49.444;7.758;2023-04-06T23:56:36;3.58;;;1.65;;
